Time;durP1;ratioP1;P1;durP2;ratioP2;P2;SDS_P1;SDS_P2;PMS_P1;PMS_P2;Temp;Humidity;BMP_temperature;BMP_pressure;BME280_temperature;BME280_humidity;BME280_pressure;Samples;Min_cycle;Max_cycle;Signal;HPM_P1;HPM_P2
2022/10/01 00:02:17;;;;;;;4.40;3.63;;;21.90;99.90;;;;;;4953688;29;20239;-88
2022/10/01 00:04:49;;;;;;;7.33;3.03;;;21.70;99.90;;;;;;4955429;28;20212;-88
2022/10/01 00:07:20;;;;;;;6.70;4.10;;;21.70;99.90;;;;;;4936289;29;20828;-89
2022/10/01 00:09:50;;;;;;;4.67;3.37;;;21.80;99.90;;;;;;4936446;29;20594;-91
2022/10/01 00:12:21;;;;;;;4.93;3.53;;;21.70;99.90;;;;;;4941783;29;20234;-90
2022/10/01 00:14:54;;;;;;;5.23;3.97;;;21.60;99.90;;;;;;4956192;28;20203;-91
2022/10/01 00:17:27;;;;;;;8.30;4.60;;;21.40;99.90;;;;;;4955852;28;20207;-91
2022/10/01 00:19:57;;;;;;;6.63;4.03;;;21.20;99.90;;;;;;4955725;28;20219;-90
2022/10/01 00:22:30;;;;;;;7.73;5.83;;;20.90;99.90;;;;;;4942285;29;20251;-91
2022/10/01 00:25:01;;;;;;;10.30;5.00;;;20.70;99.90;;;;;;4958615;28;20644;-90
2022/10/01 00:27:32;;;;;;;6.07;5.47;;;20.50;99.90;;;;;;4956241;28;20222;-91
2022/10/01 00:30:05;;;;;;;10.20;5.77;;;20.30;99.90;;;;;;4958317;28;20223;-91
2022/10/01 00:32:36;;;;;;;7.97;6.10;;;20.20;99.90;;;;;;4956967;28;20215;-90
2022/10/01 00:35:08;;;;;;;7.43;6.30;;;20.10;99.90;;;;;;4957734;28;20214;-91
2022/10/01 00:37:41;;;;;;;11.10;5.90;;;20.00;99.90;;;;;;4956198;28;20246;-91
2022/10/01 00:40:12;;;;;;;6.13;5.10;;;20.00;99.90;;;;;;4955889;28;20204;-90
2022/10/01 00:42:42;;;;;;;8.43;6.10;;;19.90;99.90;;;;;;4954994;28;20242;-90
2022/10/01 00:45:16;;;;;;;7.10;6.17;;;19.80;99.90;;;;;;4955546;28;20544;-90
2022/10/01 00:47:51;;;;;;;8.27;5.50;;;19.70;99.90;;;;;;4954275;28;20678;-91
2022/10/01 00:50:27;;;;;;;9.10;5.37;;;19.70;99.90;;;;;;4954954;29;20210;-90
2022/10/01 00:53:00;;;;;;;7.50;5.17;;;19.60;99.90;;;;;;4954482;28;20222;-88
2022/10/01 00:55:36;;;;;;;10.43;5.80;;;19.60;99.90;;;;;;4950080;28;20215;-88
2022/10/01 00:58:10;;;;;;;5.33;4.80;;;19.50;99.90;;;;;;4953400;28;20746;-88
2022/10/01 01:00:44;;;;;;;5.33;4.83;;;19.40;99.90;;;;;;4953947;28;20226;-87
2022/10/01 01:03:15;;;;;;;5.53;4.77;;;19.30;99.90;;;;;;4951273;29;20327;-88
2022/10/01 01:05:49;;;;;;;8.17;5.40;;;19.30;99.90;;;;;;4952336;29;20239;-89
2022/10/01 01:08:19;;;;;;;6.77;5.00;;;19.30;99.90;;;;;;4954231;28;20208;-89
2022/10/01 01:11:01;;;;;;;6.17;4.50;;;19.20;99.90;;;;;;4610525;28;10000512;-89
2022/10/01 01:13:36;;;;;;;5.20;4.70;;;19.10;99.90;;;;;;4955177;28;20226;-86
2022/10/01 01:16:18;;;;;;;7.23;5.20;;;19.00;99.90;;;;;;4953919;28;20207;-85
2022/10/01 01:18:55;;;;;;;5.47;4.50;;;19.00;99.90;;;;;;4951205;28;20207;-85
2022/10/01 01:21:31;;;;;;;5.33;4.10;;;18.90;99.90;;;;;;4951472;28;20574;-83
2022/10/01 01:24:26;;;;;;;5.07;4.57;;;18.80;99.90;;;;;;4950152;28;20246;-83
2022/10/01 01:27:15;;;;;;;7.13;4.60;;;18.80;99.90;;;;;;4946658;29;20212;-85
2022/10/01 01:29:54;;;;;;;5.87;5.27;;;18.60;99.90;;;;;;4939474;28;20215;-84
2022/10/01 01:32:29;;;;;;;5.47;4.97;;;18.50;99.90;;;;;;4951834;28;20208;-91
2022/10/01 01:35:04;;;;;;;5.53;5.03;;;18.40;99.90;;;;;;4955551;28;20215;-91
2022/10/01 01:37:41;;;;;;;6.03;5.40;;;18.30;99.90;;;;;;4955768;28;20219;-93
2022/10/01 01:40:14;;;;;;;7.67;5.93;;;18.20;99.90;;;;;;4956268;28;20207;-91
2022/10/01 01:42:47;;;;;;;7.73;6.23;;;18.10;99.90;;;;;;4955147;28;20320;-93
2022/10/01 01:45:27;;;;;;;7.40;5.17;;;18.00;99.90;;;;;;4955536;28;20216;-92
2022/10/01 01:48:01;;;;;;;5.80;4.70;;;17.90;99.90;;;;;;4953490;28;20222;-85
2022/10/01 01:50:39;;;;;;;9.10;4.70;;;17.90;99.90;;;;;;4949785;28;20223;-86
2022/10/01 01:53:10;;;;;;;6.53;4.70;;;17.80;99.90;;;;;;4951564;28;20214;-90
2022/10/01 01:55:43;;;;;;;6.30;4.77;;;17.70;99.90;;;;;;4955927;28;20211;-92
2022/10/01 01:58:14;;;;;;;6.47;4.83;;;17.70;99.90;;;;;;4955620;28;20311;-93
2022/10/01 02:00:51;;;;;;;6.60;4.70;;;17.60;99.90;;;;;;4958536;28;20216;-92
2022/10/01 02:03:22;;;;;;;6.47;4.37;;;17.50;99.90;;;;;;4956993;28;20235;-92
2022/10/01 02:06:05;;;;;;;6.30;4.30;;;17.40;99.90;;;;;;4958499;28;20216;-92
2022/10/01 02:08:43;;;;;;;5.93;4.83;;;17.30;99.90;;;;;;4959052;28;20211;-92
2022/10/01 02:11:24;;;;;;;6.47;4.67;;;17.20;99.90;;;;;;4971846;28;20331;-91
2022/10/01 02:14:08;;;;;;;7.73;4.90;;;17.10;99.90;;;;;;4960389;28;20264;-91
2022/10/01 02:16:49;;;;;;;7.30;4.80;;;17.00;99.90;;;;;;4958163;29;20236;-92
2022/10/01 02:19:26;;;;;;;5.63;4.10;;;16.90;99.90;;;;;;4946554;29;20244;-91
2022/10/01 02:22:01;;;;;;;5.77;4.80;;;16.80;99.90;;;;;;4943628;29;20432;-91
2022/10/01 02:24:38;;;;;;;5.67;4.90;;;16.70;99.90;;;;;;4942178;29;20252;-92
2022/10/01 02:27:16;;;;;;;8.50;4.50;;;16.70;99.90;;;;;;4940738;29;20208;-92
2022/10/01 02:29:49;;;;;;;8.50;4.27;;;16.60;99.90;;;;;;4939849;29;20216;-92
2022/10/01 02:32:24;;;;;;;5.67;4.17;;;16.60;99.90;;;;;;4938692;29;20208;-91
2022/10/01 02:34:57;;;;;;;5.23;4.40;;;16.60;99.90;;;;;;4940030;29;20212;-92
2022/10/01 02:37:30;;;;;;;6.60;4.20;;;16.50;99.90;;;;;;4938983;29;20212;-91
2022/10/01 02:40:03;;;;;;;5.37;4.27;;;16.50;99.90;;;;;;4939243;29;20670;-91
2022/10/01 02:42:36;;;;;;;6.20;4.30;;;16.50;99.90;;;;;;4937041;29;20212;-92
2022/10/01 02:45:08;;;;;;;4.87;4.37;;;16.40;99.90;;;;;;4939123;28;20216;-91
2022/10/01 02:47:46;;;;;;;5.30;4.77;;;16.40;99.90;;;;;;4941878;29;20214;-92
2022/10/01 02:50:17;;;;;;;7.13;4.40;;;16.30;99.90;;;;;;4937986;29;20210;-92
2022/10/01 02:52:55;;;;;;;5.20;4.70;;;16.30;99.90;;;;;;4937934;29;20227;-92
2022/10/01 02:55:29;;;;;;;6.53;4.43;;;16.20;99.90;;;;;;4939073;29;20227;-90
2022/10/01 02:57:59;;;;;;;4.83;4.17;;;16.20;99.90;;;;;;4938785;29;20222;-92
2022/10/01 03:00:30;;;;;;;8.10;4.70;;;16.10;99.90;;;;;;4938665;29;20211;-90
2022/10/01 03:03:04;;;;;;;7.63;4.90;;;16.10;99.90;;;;;;4945471;29;20214;-90
2022/10/01 03:05:35;;;;;;;4.63;4.13;;;16.10;99.90;;;;;;4957829;28;20211;-91
2022/10/01 03:08:07;;;;;;;6.10;4.77;;;16.00;99.90;;;;;;4956427;29;20218;-91
2022/10/01 03:10:38;;;;;;;5.70;4.40;;;16.00;99.90;;;;;;4957783;28;20212;-91
2022/10/01 03:13:17;;;;;;;6.07;4.67;;;16.00;99.90;;;;;;4957131;28;20215;-92
2022/10/01 03:15:49;;;;;;;6.80;4.50;;;15.90;99.90;;;;;;4958967;28;20220;-92
2022/10/01 03:18:22;;;;;;;9.10;4.37;;;15.90;99.90;;;;;;4959193;28;21013;-92
2022/10/01 03:20:54;;;;;;;5.33;4.10;;;15.90;99.90;;;;;;4956725;28;20230;-92
2022/10/01 03:23:25;;;;;;;8.00;4.83;;;15.80;99.90;;;;;;4957554;29;20232;-92
2022/10/01 03:25:57;;;;;;;6.53;4.63;;;15.80;99.90;;;;;;4958548;28;20204;-92
2022/10/01 03:28:28;;;;;;;6.17;4.37;;;15.70;99.90;;;;;;4961921;28;20195;-92
2022/10/01 03:31:08;;;;;;;6.57;4.73;;;15.70;99.90;;;;;;4958236;28;20208;-91
2022/10/01 03:33:41;;;;;;;6.17;4.53;;;15.70;99.90;;;;;;4957353;28;20993;-91
2022/10/01 03:36:12;;;;;;;5.83;4.57;;;15.60;99.90;;;;;;4958276;28;20211;-92
2022/10/01 03:38:43;;;;;;;6.63;5.10;;;15.60;99.90;;;;;;4957249;28;20219;-92
2022/10/01 03:41:14;;;;;;;7.33;4.57;;;15.60;99.90;;;;;;4956781;28;20211;-92
2022/10/01 03:43:45;;;;;;;5.37;4.63;;;15.60;99.90;;;;;;4956230;28;20708;-91
2022/10/01 03:46:17;;;;;;;5.80;4.27;;;15.50;99.90;;;;;;4956573;28;20571;-92
2022/10/01 03:48:50;;;;;;;10.77;4.53;;;15.40;99.90;;;;;;4957410;28;20208;-91
2022/10/01 03:51:21;;;;;;;6.23;4.47;;;15.40;99.90;;;;;;4958636;28;20208;-91
2022/10/01 03:53:53;;;;;;;7.63;4.37;;;15.40;99.90;;;;;;4956259;28;20233;-91
2022/10/01 03:56:25;;;;;;;7.20;4.70;;;15.40;99.90;;;;;;4957125;28;20254;-91
2022/10/01 03:58:57;;;;;;;9.30;4.43;;;15.30;99.90;;;;;;4956332;28;20223;-91
2022/10/01 04:01:29;;;;;;;5.87;4.77;;;15.30;99.90;;;;;;4956563;28;20211;-92
2022/10/01 04:04:03;;;;;;;8.80;4.80;;;15.30;99.90;;;;;;4955842;28;20246;-91
2022/10/01 04:06:34;;;;;;;5.37;4.87;;;15.20;99.90;;;;;;4957132;29;20295;-92
2022/10/01 04:09:06;;;;;;;5.47;4.37;;;15.20;99.90;;;;;;4957312;28;20331;-91
2022/10/01 04:11:38;;;;;;;4.80;4.37;;;15.20;99.90;;;;;;4956368;28;20215;-92
2022/10/01 04:14:09;;;;;;;5.83;4.63;;;15.20;99.90;;;;;;4956489;28;20215;-92
2022/10/01 04:16:40;;;;;;;8.97;4.53;;;15.10;99.90;;;;;;4956834;28;20215;-92
2022/10/01 04:19:13;;;;;;;6.80;4.53;;;15.10;99.90;;;;;;4957273;28;20219;-92
2022/10/01 04:21:44;;;;;;;6.57;4.87;;;15.10;99.90;;;;;;4955780;28;20203;-91
2022/10/01 04:24:15;;;;;;;6.23;4.80;;;15.10;99.90;;;;;;4955469;28;20239;-91
2022/10/01 04:26:46;;;;;;;6.40;5.20;;;15.00;99.90;;;;;;4966723;28;20225;-91
2022/10/01 04:29:17;;;;;;;5.77;4.60;;;15.00;99.90;;;;;;4976965;28;20217;-91
2022/10/01 04:31:49;;;;;;;6.23;4.60;;;14.90;99.90;;;;;;4974969;28;20213;-91
2022/10/01 04:34:51;;;;;;;5.97;4.63;;;14.90;99.90;;;;;;4975501;28;20691;-91
2022/10/01 04:37:15;;;;;;;6.07;4.60;;;14.90;99.90;;;;;;4975220;28;20214;-91
2022/10/01 04:39:46;;;;;;;10.33;4.90;;;14.90;99.90;;;;;;4978837;28;20217;-91
2022/10/01 04:42:18;;;;;;;7.37;4.60;;;14.90;99.90;;;;;;4958612;28;20211;-91
2022/10/01 04:44:49;;;;;;;6.80;5.10;;;14.80;99.90;;;;;;4975278;28;20234;-90
2022/10/01 04:47:20;;;;;;;6.17;5.00;;;14.80;99.90;;;;;;4975959;28;20217;-92
2022/10/01 04:49:53;;;;;;;8.00;6.27;;;14.80;99.90;;;;;;4975544;28;20211;-91
2022/10/01 04:52:24;;;;;;;8.13;5.40;;;14.80;99.90;;;;;;4974495;28;20233;-91
2022/10/01 04:54:55;;;;;;;8.30;5.73;;;14.80;99.90;;;;;;4937344;29;20211;-91
2022/10/01 04:57:27;;;;;;;8.50;5.50;;;14.80;99.90;;;;;;4936927;29;20291;-90
2022/10/01 04:59:58;;;;;;;6.93;5.30;;;14.70;99.90;;;;;;4936908;29;20220;-92
2022/10/01 05:02:31;;;;;;;7.53;5.40;;;14.70;99.90;;;;;;4936350;29;20204;-90
2022/10/01 05:05:06;;;;;;;5.30;4.70;;;14.70;99.90;;;;;;4936585;29;20278;-91
2022/10/01 05:07:37;;;;;;;5.87;5.37;;;14.60;99.90;;;;;;4936984;29;20506;-91
2022/10/01 05:10:11;;;;;;;5.63;5.10;;;14.60;99.90;;;;;;4937232;29;20216;-91
2022/10/01 05:12:42;;;;;;;9.03;5.50;;;14.60;99.90;;;;;;4935899;29;20212;-91
2022/10/01 05:15:13;;;;;;;8.20;5.20;;;14.60;99.90;;;;;;4950344;29;20608;-91
2022/10/01 05:17:45;;;;;;;7.57;5.23;;;14.60;99.90;;;;;;4955731;28;20212;-91
2022/10/01 05:20:22;;;;;;;6.27;5.17;;;14.60;99.90;;;;;;4955652;28;20220;-91
2022/10/01 05:22:53;;;;;;;7.93;5.47;;;14.50;99.90;;;;;;4954490;28;20215;-92
2022/10/01 05:25:24;;;;;;;7.13;5.13;;;14.50;99.90;;;;;;4955768;28;20242;-91
2022/10/01 05:28:02;;;;;;;6.67;4.93;;;14.50;99.90;;;;;;4955860;28;20229;-91
2022/10/01 05:30:34;;;;;;;5.83;5.27;;;14.50;99.90;;;;;;4955589;28;20211;-91
2022/10/01 05:33:06;;;;;;;7.27;4.93;;;14.40;99.90;;;;;;4954644;28;20222;-91
2022/10/01 05:35:39;;;;;;;7.40;5.50;;;14.40;99.90;;;;;;4955834;28;20208;-90
2022/10/01 05:38:10;;;;;;;6.77;5.37;;;14.40;99.90;;;;;;4958320;28;20211;-92
2022/10/01 05:40:46;;;;;;;6.70;4.73;;;14.30;99.90;;;;;;4955731;28;20207;-91
2022/10/01 05:43:17;;;;;;;5.17;4.67;;;14.30;99.90;;;;;;4955550;28;20637;-91
2022/10/01 05:45:50;;;;;;;7.77;5.77;;;14.30;99.90;;;;;;4962764;28;20238;-91
2022/10/01 05:48:21;;;;;;;9.50;5.93;;;14.20;99.90;;;;;;4961485;28;20231;-91
2022/10/01 05:50:54;;;;;;;9.90;6.10;;;14.20;99.90;;;;;;4961977;28;20207;-91
2022/10/01 05:53:25;;;;;;;6.60;5.47;;;14.20;99.90;;;;;;4958763;28;20607;-91
2022/10/01 05:55:55;;;;;;;8.20;5.83;;;14.20;99.90;;;;;;4959877;28;20219;-91
2022/10/01 05:58:27;;;;;;;6.63;5.80;;;14.20;99.90;;;;;;4958715;29;20679;-90
2022/10/01 06:00:58;;;;;;;6.33;5.60;;;14.20;99.90;;;;;;4957776;29;20231;-91
2022/10/01 06:03:30;;;;;;;6.30;5.60;;;14.10;99.90;;;;;;4960627;28;20231;-90
2022/10/01 06:06:04;;;;;;;7.43;6.00;;;14.10;99.90;;;;;;4963592;28;20235;-91
2022/10/01 06:08:36;;;;;;;8.23;5.47;;;14.10;99.90;;;;;;4964050;28;20215;-90
2022/10/01 06:11:07;;;;;;;8.10;5.50;;;14.10;99.90;;;;;;4963864;28;20212;-91
2022/10/01 06:13:39;;;;;;;6.10;5.50;;;14.10;99.90;;;;;;4958907;28;20548;-92
2022/10/01 06:16:10;;;;;;;6.23;5.10;;;14.00;99.90;;;;;;4958873;28;20220;-91
2022/10/01 06:18:41;;;;;;;6.37;5.57;;;14.00;99.90;;;;;;4959081;28;20212;-91
2022/10/01 06:21:14;;;;;;;6.20;5.47;;;14.00;99.90;;;;;;4959199;28;20216;-91
2022/10/01 06:23:48;;;;;;;7.07;5.90;;;14.00;99.90;;;;;;4957922;28;20212;-91
2022/10/01 06:26:19;;;;;;;5.87;5.27;;;13.90;99.90;;;;;;4959162;28;20239;-91
2022/10/01 06:28:51;;;;;;;8.93;5.37;;;14.00;99.90;;;;;;4958826;28;20242;-91
2022/10/01 06:31:22;;;;;;;7.80;5.33;;;13.90;99.90;;;;;;4958455;28;20216;-91
2022/10/01 06:33:53;;;;;;;7.50;5.50;;;13.90;99.90;;;;;;4957937;28;20223;-91
2022/10/01 06:36:26;;;;;;;6.70;5.27;;;13.90;99.90;;;;;;4958490;28;20215;-91
2022/10/01 06:38:59;;;;;;;8.57;4.90;;;13.80;99.90;;;;;;4958444;28;20208;-90
2022/10/01 06:41:30;;;;;;;7.10;5.23;;;13.90;99.90;;;;;;4958490;28;20669;-91
2022/10/01 06:44:02;;;;;;;6.77;5.00;;;13.80;99.90;;;;;;4957893;28;20247;-91
2022/10/01 06:46:33;;;;;;;6.27;5.40;;;13.80;99.90;;;;;;4939062;29;20228;-91
2022/10/01 06:49:07;;;;;;;8.70;5.90;;;13.80;99.90;;;;;;4939348;29;20275;-92
2022/10/01 06:54:27;;;;;;;6.23;5.13;;;13.70;99.90;;;;;;4953545;28;20208;-91
2022/10/01 06:56:59;;;;;;;7.13;5.33;;;13.80;99.90;;;;;;4958549;28;20219;-90
2022/10/01 06:59:29;;;;;;;10.43;5.53;;;13.70;99.90;;;;;;4958062;28;20216;-90
2022/10/01 07:02:01;;;;;;;8.73;5.63;;;13.70;99.90;;;;;;4957254;28;20215;-91
2022/10/01 07:04:32;;;;;;;8.67;5.30;;;13.70;99.90;;;;;;4958181;28;20569;-90
2022/10/01 07:07:06;;;;;;;8.33;4.50;;;13.70;99.90;;;;;;4957529;28;20608;-90
2022/10/01 07:09:37;;;;;;;5.50;4.53;;;13.70;99.90;;;;;;4957917;28;20207;-91
2022/10/01 07:12:08;;;;;;;6.27;4.43;;;13.70;99.90;;;;;;4955978;28;20226;-91
2022/10/01 07:14:39;;;;;;;5.10;4.60;;;13.60;99.90;;;;;;4958117;28;20290;-91
2022/10/01 07:17:10;;;;;;;5.60;5.10;;;13.60;99.90;;;;;;4958436;28;20212;-91
2022/10/01 07:19:41;;;;;;;6.90;4.93;;;13.60;99.90;;;;;;4957929;28;20230;-91
2022/10/01 07:22:14;;;;;;;9.23;5.10;;;13.60;99.90;;;;;;4956353;28;20641;-90
2022/10/01 07:24:45;;;;;;;6.73;5.00;;;13.60;99.90;;;;;;4961565;28;20606;-93
2022/10/01 07:27:16;;;;;;;9.73;5.13;;;13.60;99.90;;;;;;4957533;28;20710;-91
2022/10/01 07:29:48;;;;;;;6.13;5.00;;;13.50;99.90;;;;;;4966582;28;20213;-90
2022/10/01 07:32:19;;;;;;;7.33;5.10;;;13.50;99.90;;;;;;4973903;28;20271;-90
2022/10/01 07:34:51;;;;;;;6.07;5.10;;;13.50;99.90;;;;;;4982308;28;20566;-92
2022/10/01 07:37:24;;;;;;;7.90;5.20;;;13.50;99.90;;;;;;4978603;28;20207;-91
2022/10/01 07:39:55;;;;;;;6.77;4.80;;;13.50;99.90;;;;;;4969739;28;20208;-91
2022/10/01 07:42:27;;;;;;;5.87;5.27;;;13.40;99.90;;;;;;4944147;29;20231;-91
2022/10/01 07:44:58;;;;;;;10.83;5.27;;;13.40;99.90;;;;;;4956130;29;20263;-92
2022/10/01 07:47:29;;;;;;;5.47;4.90;;;13.40;99.90;;;;;;4955496;29;20232;-92
2022/10/01 07:50:01;;;;;;;6.33;5.40;;;13.40;99.90;;;;;;4951244;29;20197;-91
2022/10/01 07:52:34;;;;;;;7.07;5.53;;;13.40;99.90;;;;;;4939970;29;20208;-91
2022/10/01 07:55:09;;;;;;;6.50;5.43;;;13.40;99.90;;;;;;4940414;29;20215;-91
2022/10/01 07:57:41;;;;;;;7.43;5.20;;;13.40;99.90;;;;;;4939701;29;20235;-90
2022/10/01 08:00:13;;;;;;;8.87;6.03;;;13.40;99.90;;;;;;4938094;29;20215;-91
2022/10/01 08:02:50;;;;;;;6.27;5.50;;;13.40;99.90;;;;;;4937138;29;20215;-91
2022/10/01 08:05:23;;;;;;;8.43;6.00;;;13.30;99.90;;;;;;4937495;29;20216;-91
2022/10/01 08:08:00;;;;;;;8.30;6.27;;;13.30;99.90;;;;;;4937016;29;20493;-91
2022/10/01 08:10:33;;;;;;;8.10;5.10;;;13.30;99.90;;;;;;4938059;29;20216;-90
2022/10/01 08:13:07;;;;;;;7.77;5.47;;;13.30;99.90;;;;;;4955176;29;20267;-90
2022/10/01 08:15:38;;;;;;;8.83;5.23;;;13.20;99.90;;;;;;4956427;28;20690;-91
2022/10/01 08:18:10;;;;;;;5.90;5.20;;;13.30;99.90;;;;;;4956068;28;20218;-89
2022/10/01 08:20:43;;;;;;;7.17;5.10;;;13.20;99.90;;;;;;4954769;28;20216;-90
2022/10/01 08:23:17;;;;;;;8.60;5.57;;;13.20;99.90;;;;;;4953742;28;20219;-91
2022/10/01 08:25:48;;;;;;;9.53;5.63;;;13.20;99.90;;;;;;4953976;28;20211;-92
2022/10/01 08:28:19;;;;;;;7.60;5.97;;;13.20;99.90;;;;;;4954406;28;20235;-90
2022/10/01 08:30:50;;;;;;;7.43;6.03;;;13.20;99.90;;;;;;4954542;28;20227;-90
2022/10/01 08:33:21;;;;;;;7.43;5.80;;;13.20;99.90;;;;;;4952659;29;20302;-91
2022/10/01 08:35:52;;;;;;;8.17;6.47;;;13.20;99.90;;;;;;4955393;28;20218;-91
2022/10/01 08:38:26;;;;;;;8.43;5.63;;;13.10;99.90;;;;;;4956868;28;20215;-91
2022/10/01 08:40:58;;;;;;;7.80;5.90;;;13.10;99.90;;;;;;4953540;29;20216;-91
2022/10/01 08:43:35;;;;;;;10.10;5.87;;;13.10;99.90;;;;;;4954793;29;20310;-91
2022/10/01 08:46:12;;;;;;;7.37;6.23;;;13.10;99.90;;;;;;4956289;28;21073;-90
2022/10/01 08:48:55;;;;;;;6.07;5.47;;;13.10;99.90;;;;;;4956496;28;20357;-90
2022/10/01 08:51:32;;;;;;;8.70;6.13;;;13.10;99.90;;;;;;4957616;28;20226;-90
2022/10/01 08:54:18;;;;;;;6.97;6.27;;;13.10;99.90;;;;;;4967518;28;20219;-91
2022/10/01 08:56:49;;;;;;;9.30;6.23;;;13.10;99.90;;;;;;4940542;29;20207;-90
2022/10/01 08:59:44;;;;;;;9.40;6.70;;;13.10;99.90;;;;;;4938806;29;20223;-91
2022/10/01 09:02:24;;;;;;;9.63;6.63;;;13.10;99.90;;;;;;4935689;29;20208;-91
2022/10/01 09:04:58;;;;;;;11.53;6.37;;;13.10;99.90;;;;;;4936879;29;20778;-91
2022/10/01 09:08:01;;;;;;;9.97;6.70;;;13.10;99.90;;;;;;4936786;29;21010;-91
2022/10/01 09:10:45;;;;;;;6.63;5.93;;;13.10;99.90;;;;;;4929998;29;20392;-90
2022/10/01 09:13:32;;;;;;;10.23;6.40;;;13.10;99.90;;;;;;4943490;29;20210;-90
2022/10/01 09:16:12;;;;;;;9.93;6.43;;;13.00;99.90;;;;;;4955594;28;20214;-90
2022/10/01 09:18:55;;;;;;;8.03;5.90;;;13.00;99.90;;;;;;4957935;28;20215;-90
2022/10/01 09:21:39;;;;;;;7.10;5.97;;;12.90;99.90;;;;;;4957774;29;20211;-90
2022/10/01 09:24:15;;;;;;;8.17;6.30;;;12.90;99.90;;;;;;4959816;28;20218;-90
2022/10/01 09:26:49;;;;;;;11.80;6.50;;;12.90;99.90;;;;;;4959963;28;20237;-91
2022/10/01 09:29:27;;;;;;;9.53;6.00;;;12.90;99.90;;;;;;4959953;28;20212;-91
2022/10/01 09:32:00;;;;;;;6.43;5.83;;;12.80;99.90;;;;;;4958048;29;20372;-91
2022/10/01 09:34:38;;;;;;;8.03;6.07;;;12.80;99.90;;;;;;4960206;28;20282;-90
2022/10/01 09:37:19;;;;;;;9.90;6.77;;;12.80;99.90;;;;;;4959143;28;20218;-91
2022/10/01 09:40:01;;;;;;;9.37;6.50;;;12.70;99.90;;;;;;4959432;28;20227;-90
2022/10/01 09:42:35;;;;;;;10.70;6.67;;;12.70;99.90;;;;;;4958500;28;20221;-91
2022/10/01 09:45:07;;;;;;;9.40;7.60;;;12.70;99.90;;;;;;4959412;28;20219;-90
2022/10/01 09:47:42;;;;;;;8.87;7.00;;;12.60;99.90;;;;;;4959369;28;20235;-91
2022/10/01 09:50:17;;;;;;;12.20;7.60;;;12.60;99.90;;;;;;4959298;28;20579;-90
2022/10/01 09:52:50;;;;;;;11.40;7.33;;;12.60;99.90;;;;;;4957998;28;20551;-91
2022/10/01 09:55:31;;;;;;;10.00;7.30;;;12.50;99.90;;;;;;4958418;29;20218;-91
2022/10/01 09:58:13;;;;;;;8.20;7.33;;;12.50;99.90;;;;;;4959297;28;20628;-91
2022/10/01 10:00:47;;;;;;;7.87;7.03;;;12.50;99.90;;;;;;4959220;28;20657;-92
2022/10/01 10:03:26;;;;;;;9.67;7.07;;;12.50;99.90;;;;;;4961150;28;20215;-91
2022/10/01 10:05:58;;;;;;;8.73;7.40;;;12.50;99.90;;;;;;4962510;28;21098;-91
2022/10/01 10:08:32;;;;;;;9.50;7.80;;;12.50;99.90;;;;;;4958723;29;20240;-90
2022/10/01 10:11:05;;;;;;;9.47;7.70;;;12.50;99.90;;;;;;4957229;28;20861;-91
2022/10/01 10:13:42;;;;;;;12.63;8.13;;;12.50;99.90;;;;;;4954190;28;20209;-90
2022/10/01 10:16:25;;;;;;;10.17;8.13;;;12.50;99.90;;;;;;4939900;29;20219;-91
2022/10/01 10:18:59;;;;;;;11.07;8.80;;;12.40;99.90;;;;;;4940778;29;20548;-90
2022/10/01 10:21:33;;;;;;;13.37;9.90;;;12.40;99.90;;;;;;4940998;29;20212;-90
2022/10/01 10:24:06;;;;;;;14.30;10.97;;;12.40;99.90;;;;;;4956812;29;20229;-91
2022/10/01 10:26:39;;;;;;;15.55;11.45;;;12.30;99.90;;;;;;4960347;28;20219;-90
2022/10/01 10:29:29;;;;;;;13.70;10.20;;;12.40;99.90;;;;;;4958642;28;20294;-91
2022/10/01 10:32:04;;;;;;;14.27;10.63;;;12.40;99.90;;;;;;4958346;28;20200;-90
2022/10/01 10:34:38;;;;;;;14.13;11.37;;;12.30;99.90;;;;;;4958813;28;20211;-91
2022/10/01 10:37:16;;;;;;;16.27;11.17;;;12.40;99.90;;;;;;4958818;28;20215;-90
2022/10/01 10:39:51;;;;;;;16.80;12.03;;;12.10;99.90;;;;;;4958422;28;20212;-91
2022/10/01 10:42:24;;;;;;;16.20;12.97;;;12.20;99.90;;;;;;4957591;28;20613;-90
2022/10/01 10:45:05;;;;;;;20.93;12.90;;;12.20;99.90;;;;;;4957670;29;20214;-90
2022/10/01 10:47:46;;;;;;;15.63;13.37;;;12.20;99.90;;;;;;4958589;28;20243;-90
2022/10/01 10:50:33;;;;;;;19.63;14.13;;;12.20;99.90;;;;;;4958872;28;20652;-91
2022/10/01 10:53:20;;;;;;;19.67;15.73;;;12.10;99.90;;;;;;4957298;28;20220;-91
2022/10/01 10:56:00;;;;;;;21.60;17.13;;;12.10;99.90;;;;;;4958456;28;20271;-91
2022/10/01 10:58:32;;;;;;;22.03;16.67;;;12.20;99.90;;;;;;4958242;28;20668;-89
2022/10/01 11:01:09;;;;;;;24.60;16.97;;;12.20;99.90;;;;;;4958045;28;20207;-91
2022/10/01 11:03:45;;;;;;;27.40;17.50;;;12.20;99.90;;;;;;4957041;28;20254;-90
2022/10/01 11:06:18;;;;;;;22.57;18.67;;;12.20;99.90;;;;;;4957871;28;20222;-91
2022/10/01 11:08:58;;;;;;;27.20;20.90;;;12.20;99.90;;;;;;4957689;28;20322;-91
2022/10/01 11:11:47;;;;;;;25.07;20.17;;;12.10;99.90;;;;;;4958446;28;20755;-92
2022/10/01 11:14:34;;;;;;;27.90;20.80;;;12.10;99.90;;;;;;4957603;28;20250;-91
2022/10/01 11:17:26;;;;;;;25.23;20.70;;;12.20;99.90;;;;;;4957885;28;20212;-91
2022/10/01 11:20:13;;;;;;;34.33;22.97;;;12.10;99.90;;;;;;4957667;28;20207;-91
2022/10/01 11:23:02;;;;;;;26.83;22.50;;;12.10;99.90;;;;;;4956833;28;20216;-91
2022/10/01 11:25:43;;;;;;;26.63;22.60;;;12.10;99.90;;;;;;4957589;28;20254;-91
2022/10/01 11:28:30;;;;;;;30.43;24.43;;;12.10;99.90;;;;;;4957361;28;20224;-90
2022/10/01 11:31:12;;;;;;;28.97;24.63;;;12.10;99.90;;;;;;4958212;28;20570;-90
2022/10/01 11:33:58;;;;;;;30.70;25.67;;;12.10;99.90;;;;;;4956185;29;20274;-90
2022/10/01 11:36:35;;;;;;;35.03;26.47;;;12.10;99.90;;;;;;4957524;28;20218;-91
2022/10/01 11:39:12;;;;;;;35.63;25.97;;;12.10;99.90;;;;;;4957957;28;20633;-91
2022/10/01 11:41:48;;;;;;;29.03;25.00;;;12.10;99.90;;;;;;4956119;28;21006;-91
2022/10/01 11:44:27;;;;;;;30.50;25.10;;;12.00;99.90;;;;;;4957516;28;20213;-90
2022/10/01 11:47:03;;;;;;;28.50;22.83;;;12.00;99.90;;;;;;4958029;28;20218;-91
2022/10/01 11:49:54;;;;;;;28.90;23.30;;;12.00;99.90;;;;;;4957134;28;20235;-91
2022/10/01 11:52:36;;;;;;;27.83;22.90;;;12.00;99.90;;;;;;4956553;28;20215;-91
2022/10/01 12:01:12;;;;;;;23.10;19.30;;;12.00;99.90;;;;;;4959011;28;20215;-91
2022/10/01 12:04:02;;;;;;;22.03;18.40;;;12.10;99.90;;;;;;4956460;28;20211;-91
2022/10/01 12:06:39;;;;;;;21.03;17.10;;;12.00;99.90;;;;;;4956920;28;20207;-90
2022/10/01 12:09:17;;;;;;;18.00;15.60;;;12.00;99.90;;;;;;4956737;28;20239;-91
2022/10/01 12:11:55;;;;;;;19.90;16.07;;;12.00;99.90;;;;;;4956150;28;20212;-90
2022/10/01 12:14:31;;;;;;;19.07;15.80;;;12.00;99.90;;;;;;4956896;28;20573;-91
2022/10/01 12:17:12;;;;;;;21.13;16.30;;;12.00;99.90;;;;;;4956711;28;20226;-90
2022/10/01 12:19:49;;;;;;;20.80;16.27;;;12.00;99.90;;;;;;4957021;28;20211;-91
2022/10/01 12:22:30;;;;;;;19.03;16.00;;;11.90;99.90;;;;;;4955157;28;20214;-90
2022/10/01 12:25:01;;;;;;;17.80;14.93;;;11.90;99.90;;;;;;4956334;28;20212;-91
2022/10/01 12:27:48;;;;;;;17.40;14.30;;;11.90;99.90;;;;;;4956792;29;20203;-91
2022/10/01 12:30:21;;;;;;;17.67;13.83;;;11.90;99.90;;;;;;4956039;29;20222;-90
2022/10/01 12:33:05;;;;;;;16.10;14.07;;;11.90;99.90;;;;;;4959246;28;20813;-90
2022/10/01 12:35:54;;;;;;;19.80;14.83;;;11.90;99.90;;;;;;4956473;28;20216;-91
2022/10/01 12:38:41;;;;;;;21.40;15.90;;;11.80;99.90;;;;;;4959190;29;20203;-91
2022/10/01 12:41:28;;;;;;;22.13;16.93;;;11.80;99.90;;;;;;4959174;28;20241;-90
2022/10/01 12:44:21;;;;;;;19.80;15.60;;;11.80;99.90;;;;;;4955361;29;20212;-91
2022/10/01 12:47:04;;;;;;;21.03;16.40;;;11.80;99.90;;;;;;4956176;29;20291;-91
2022/10/01 12:49:45;;;;;;;18.60;16.63;;;11.80;99.90;;;;;;4957830;28;20537;-89
2022/10/01 12:52:22;;;;;;;19.63;16.57;;;11.70;99.90;;;;;;4955870;28;20203;-90
2022/10/01 12:55:16;;;;;;;22.40;17.23;;;11.70;99.90;;;;;;4956051;28;20211;-91
2022/10/01 12:57:54;;;;;;;20.33;17.77;;;11.70;99.90;;;;;;4955614;29;20216;-91
2022/10/01 13:00:28;;;;;;;19.80;16.83;;;11.70;99.90;;;;;;4957054;28;20221;-91
2022/10/01 13:03:18;;;;;;;19.87;16.43;;;11.60;99.90;;;;;;4955771;28;20223;-91
2022/10/01 13:06:04;;;;;;;19.90;15.83;;;11.70;99.90;;;;;;4955680;28;20230;-90
2022/10/01 13:08:48;;;;;;;20.57;15.50;;;11.60;99.90;;;;;;4956030;28;20596;-91
2022/10/01 13:11:42;;;;;;;18.57;14.80;;;11.60;99.90;;;;;;4957271;28;20224;-90
2022/10/01 13:14:15;;;;;;;21.13;16.20;;;11.70;99.90;;;;;;4958443;28;20211;-91
2022/10/01 13:16:54;;;;;;;20.27;16.07;;;11.60;99.90;;;;;;4959804;28;20314;-91
2022/10/01 13:19:31;;;;;;;20.13;16.23;;;11.60;99.90;;;;;;4975121;28;20199;-89
2022/10/01 13:22:15;;;;;;;19.43;16.17;;;11.60;99.90;;;;;;4973704;28;20234;-91
2022/10/01 13:24:50;;;;;;;22.87;17.43;;;11.60;99.90;;;;;;4971829;28;20207;-90
2022/10/01 13:27:29;;;;;;;21.10;16.67;;;11.60;99.90;;;;;;4958609;28;20211;-91
2022/10/01 13:30:04;;;;;;;19.33;16.17;;;11.60;99.90;;;;;;4959053;28;20270;-91
2022/10/01 13:32:50;;;;;;;19.40;16.07;;;11.60;99.90;;;;;;4957609;28;20287;-90